Terminal Aerodrome Forecast
Issued by NWS Shreveport, LA

Current Version | Previous Version | Text Only | Print | Product List | Glossary On
Versions: 1 2 3 4 5 6 7 8 9 10 11 12 13 14
000
FTUS44 KSHV 031158
TAFELD
TAF
KELD 031158Z 0312/0412 VRB06KT P6SM FEW015 BKN180
      TEMPO 0313/0315 BKN015
     FM031500 VRB06KT P6SM VCTS SCT040CB OVC140
     FM031800 21011G17KT P6SM VCTS OVC050CB
     FM032000 22008KT P6SM OVC050
     FM040000 18004KT P6SM VCSH OVC050
     FM040600 20003KT P6SM OVC050=

USA.gov is the U.S. government's official web portal to all federal, state and local government web resources and services.